Terminal Aerodrome Forecast
Issued by NWS Twin Cities, MN

Home | Current Version | Previous Version | Graphics & Text | Print | Product List | Glossary On
Versions: 1 2 3 4 5 6 7 8 9 10 11 12 13 14
000
FTUS43 KMPX 262300
TAFEAU
TAF
KEAU 262321Z 2700/2724 31005KT P6SM SCT120 BKN250
     FM270300 VRB02KT P6SM BKN100 BKN250
     FM271500 07005KT P6SM SCT120 SCT250=

USA.gov is the U.S. government's official web portal to all federal, state and local government web resources and services.